General Aviation Weather

Text Reports

Enter one or more of the following location identifiers separated by a space:

Zip Code, Four-Character ICAO or Three-Character IATA airport codes.

METAR - Aviation Routine Weather Report
KRRL - Merrill, Wisconsin
Updated at 2:35 PM GMT on December 10, 2016 (8:35 AM CST):
METAR KRRL 101435Z AUTO 32004KT 10SM OVC024 M13/M17 A3042 RMK AO2 T11281171
TAF - Terminal Area Forecast
KRRL - Merrill, Wisconsin
Updated at 2:35 PM GMT on December 10, 2016 (8:35 AM CST):
No TAF is currently available for this location.
Decoded:
No decoded TAF is available.
PIREP - Pilot Weather Report
KRRL - Merrill, Wisconsin
Updated at 2:35 PM GMT on December 10, 2016 (8:35 AM CST):
No PIREP is currently available for this location.
AIRMET - Airmens Meteorological Information
KRRL - Merrill, Wisconsin
Updated at 2:35 PM GMT on December 10, 2016 (8:35 AM CST):
No AIRMET is currently available for this location.
SIGMET - Significant Meteorological Information
KRRL - Merrill, Wisconsin
Updated at 2:35 PM GMT on December 10, 2016 (8:35 AM CST):
No SIGMET is currently available for this location.
NOTAM - Notice to Airmen
KRRL - Merrill, Wisconsin
Updated at 2:35 PM GMT on December 10, 2016 (8:35 AM CST):
No NOTAM is currently available for this location.
Forecast Area
KRRL - Merrill, Wisconsin
Updated at 2:35 PM GMT on December 10, 2016 (8:35 AM CST):
No NOTAM is currently available for this location.
Aviation Weather Maps